sensor_id;sensor_type;location;lat;lon;timestamp;P1;durP1;ratioP1;P2;durP2;ratioP2
71290;SDS011;59073;51.994;4.448;2022-08-07T00:02:53;2.61;;;2.61;;
71290;SDS011;59073;51.994;4.448;2022-08-07T00:06:10;2.87;;;2.87;;
71290;SDS011;59073;51.994;4.448;2022-08-07T00:09:02;2.96;;;2.96;;
71290;SDS011;59073;51.994;4.448;2022-08-07T00:15:17;2.28;;;2.28;;
71290;SDS011;59073;51.994;4.448;2022-08-07T00:17:42;2.35;;;2.35;;
71290;SDS011;59073;51.994;4.448;2022-08-07T00:27:21;2.06;;;2.06;;
71290;SDS011;59073;51.994;4.448;2022-08-07T00:30:18;2.34;;;2.34;;
71290;SDS011;59073;51.994;4.448;2022-08-07T00:33:08;2.40;;;2.40;;
71290;SDS011;59073;51.994;4.448;2022-08-07T00:36:12;2.73;;;2.73;;
71290;SDS011;59073;51.994;4.448;2022-08-07T00:38:37;3.22;;;3.22;;
71290;SDS011;59073;51.994;4.448;2022-08-07T00:41:13;3.49;;;3.49;;
71290;SDS011;59073;51.994;4.448;2022-08-07T00:44:00;2.95;;;2.95;;
71290;SDS011;59073;51.994;4.448;2022-08-07T00:46:31;3.29;;;3.29;;
71290;SDS011;59073;51.994;4.448;2022-08-07T00:49:33;2.94;;;2.94;;
71290;SDS011;59073;51.994;4.448;2022-08-07T01:20:32;2.40;;;2.40;;
71290;SDS011;59073;51.994;4.448;2022-08-07T01:23:46;2.88;;;2.88;;
71290;SDS011;59073;51.994;4.448;2022-08-07T01:27:01;2.69;;;2.69;;
71290;SDS011;59073;51.994;4.448;2022-08-07T01:45:07;1.85;;;1.85;;
71290;SDS011;59073;51.994;4.448;2022-08-07T01:51:33;2.78;;;2.78;;
71290;SDS011;59073;51.994;4.448;2022-08-07T01:57:42;2.59;;;2.59;;
71290;SDS011;59073;51.994;4.448;2022-08-07T02:00:38;2.16;;;2.16;;
71290;SDS011;59073;51.994;4.448;2022-08-07T02:03:46;1.87;;;1.87;;
71290;SDS011;59073;51.994;4.448;2022-08-07T02:10:51;1.44;;;1.44;;
71290;SDS011;59073;51.994;4.448;2022-08-07T02:13:57;1.81;;;1.81;;
71290;SDS011;59073;51.994;4.448;2022-08-07T02:16:30;2.15;;;2.15;;
71290;SDS011;59073;51.994;4.448;2022-08-07T02:19:45;2.12;;;2.12;;
71290;SDS011;59073;51.994;4.448;2022-08-07T02:21:55;1.72;;;1.72;;
71290;SDS011;59073;51.994;4.448;2022-08-07T02:24:27;1.72;;;1.72;;
71290;SDS011;59073;51.994;4.448;2022-08-07T02:37:53;2.70;;;2.70;;
71290;SDS011;59073;51.994;4.448;2022-08-07T02:40:38;2.27;;;2.27;;
71290;SDS011;59073;51.994;4.448;2022-08-07T02:46:37;2.06;;;2.06;;
71290;SDS011;59073;51.994;4.448;2022-08-07T02:49:32;2.09;;;2.09;;
71290;SDS011;59073;51.994;4.448;2022-08-07T02:55:51;1.52;;;1.52;;
71290;SDS011;59073;51.994;4.448;2022-08-07T02:59:13;1.59;;;1.59;;
71290;SDS011;59073;51.994;4.448;2022-08-07T03:02:07;1.79;;;1.79;;
71290;SDS011;59073;51.994;4.448;2022-08-07T03:04:37;1.61;;;1.61;;
71290;SDS011;59073;51.994;4.448;2022-08-07T03:07:18;2.01;;;2.01;;
71290;SDS011;59073;51.994;4.448;2022-08-07T03:09:44;1.96;;;1.96;;
71290;SDS011;59073;51.994;4.448;2022-08-07T03:16:23;1.60;;;1.60;;
71290;SDS011;59073;51.994;4.448;2022-08-07T03:26:02;1.23;;;1.23;;
71290;SDS011;59073;51.994;4.448;2022-08-07T03:28:47;1.56;;;1.56;;
71290;SDS011;59073;51.994;4.448;2022-08-07T03:31:18;1.37;;;1.37;;
71290;SDS011;59073;51.994;4.448;2022-08-07T03:33:47;1.23;;;1.23;;
71290;SDS011;59073;51.994;4.448;2022-08-07T03:36:15;1.27;;;1.27;;
71290;SDS011;59073;51.994;4.448;2022-08-07T03:38:48;1.65;;;1.65;;
71290;SDS011;59073;51.994;4.448;2022-08-07T03:41:37;0.98;;;0.98;;
71290;SDS011;59073;51.994;4.448;2022-08-07T03:44:07;0.88;;;0.88;;
71290;SDS011;59073;51.994;4.448;2022-08-07T03:46:46;1.00;;;1.00;;
71290;SDS011;59073;51.994;4.448;2022-08-07T03:56:56;0.62;;;0.62;;
71290;SDS011;59073;51.994;4.448;2022-08-07T03:59:56;1.14;;;1.14;;
71290;SDS011;59073;51.994;4.448;2022-08-07T04:02:36;0.75;;;0.75;;
71290;SDS011;59073;51.994;4.448;2022-08-07T04:05:18;0.97;;;0.97;;
71290;SDS011;59073;51.994;4.448;2022-08-07T04:07:45;1.14;;;1.14;;
71290;SDS011;59073;51.994;4.448;2022-08-07T04:10:11;1.26;;;1.26;;
71290;SDS011;59073;51.994;4.448;2022-08-07T04:12:37;1.16;;;1.16;;
71290;SDS011;59073;51.994;4.448;2022-08-07T04:15:03;1.32;;;1.32;;
71290;SDS011;59073;51.994;4.448;2022-08-07T04:17:30;1.12;;;1.12;;
71290;SDS011;59073;51.994;4.448;2022-08-07T04:19:56;0.90;;;0.90;;
71290;SDS011;59073;51.994;4.448;2022-08-07T04:22:22;0.58;;;0.58;;
71290;SDS011;59073;51.994;4.448;2022-08-07T04:24:49;0.61;;;0.61;;
71290;SDS011;59073;51.994;4.448;2022-08-07T04:27:15;0.68;;;0.68;;
71290;SDS011;59073;51.994;4.448;2022-08-07T04:29:44;0.96;;;0.96;;
71290;SDS011;59073;51.994;4.448;2022-08-07T04:32:10;1.13;;;1.13;;
71290;SDS011;59073;51.994;4.448;2022-08-07T04:34:35;1.18;;;1.18;;
71290;SDS011;59073;51.994;4.448;2022-08-07T04:37:01;1.38;;;1.38;;
71290;SDS011;59073;51.994;4.448;2022-08-07T04:39:27;2.13;;;2.13;;
71290;SDS011;59073;51.994;4.448;2022-08-07T04:41:53;2.24;;;2.24;;
71290;SDS011;59073;51.994;4.448;2022-08-07T04:44:18;1.28;;;1.28;;
71290;SDS011;59073;51.994;4.448;2022-08-07T04:57:53;0.92;;;0.92;;
71290;SDS011;59073;51.994;4.448;2022-08-07T05:00:42;1.26;;;1.26;;
71290;SDS011;59073;51.994;4.448;2022-08-07T05:03:19;1.86;;;1.86;;
71290;SDS011;59073;51.994;4.448;2022-08-07T05:05:59;1.70;;;1.70;;
71290;SDS011;59073;51.994;4.448;2022-08-07T05:08:51;1.56;;;1.56;;
71290;SDS011;59073;51.994;4.448;2022-08-07T05:11:34;1.80;;;1.80;;
71290;SDS011;59073;51.994;4.448;2022-08-07T05:14:52;2.13;;;2.13;;
71290;SDS011;59073;51.994;4.448;2022-08-07T05:17:02;2.35;;;2.35;;
71290;SDS011;59073;51.994;4.448;2022-08-07T05:19:37;1.84;;;1.84;;
71290;SDS011;59073;51.994;4.448;2022-08-07T05:22:11;1.57;;;1.57;;
71290;SDS011;59073;51.994;4.448;2022-08-07T05:24:42;1.46;;;1.46;;
71290;SDS011;59073;51.994;4.448;2022-08-07T05:27:11;1.39;;;1.39;;
71290;SDS011;59073;51.994;4.448;2022-08-07T05:29:40;1.68;;;1.68;;
71290;SDS011;59073;51.994;4.448;2022-08-07T05:32:09;1.64;;;1.64;;
71290;SDS011;59073;51.994;4.448;2022-08-07T05:34:39;1.39;;;1.39;;
71290;SDS011;59073;51.994;4.448;2022-08-07T05:37:06;1.59;;;1.59;;
71290;SDS011;59073;51.994;4.448;2022-08-07T05:39:34;1.80;;;1.80;;
71290;SDS011;59073;51.994;4.448;2022-08-07T05:42:01;1.64;;;1.64;;
71290;SDS011;59073;51.994;4.448;2022-08-07T05:44:28;1.53;;;1.53;;
71290;SDS011;59073;51.994;4.448;2022-08-07T05:46:57;1.71;;;1.71;;
71290;SDS011;59073;51.994;4.448;2022-08-07T05:49:25;1.79;;;1.79;;
71290;SDS011;59073;51.994;4.448;2022-08-07T05:51:51;1.61;;;1.61;;
71290;SDS011;59073;51.994;4.448;2022-08-07T05:54:17;1.81;;;1.81;;
71290;SDS011;59073;51.994;4.448;2022-08-07T05:56:43;1.70;;;1.70;;
71290;SDS011;59073;51.994;4.448;2022-08-07T05:59:16;2.05;;;2.05;;
71290;SDS011;59073;51.994;4.448;2022-08-07T06:01:46;2.20;;;2.20;;
71290;SDS011;59073;51.994;4.448;2022-08-07T06:04:14;2.20;;;2.20;;
71290;SDS011;59073;51.994;4.448;2022-08-07T06:06:44;2.11;;;2.11;;
71290;SDS011;59073;51.994;4.448;2022-08-07T06:09:09;2.28;;;2.28;;
71290;SDS011;59073;51.994;4.448;2022-08-07T06:11:36;2.47;;;2.47;;
71290;SDS011;59073;51.994;4.448;2022-08-07T06:14:02;2.52;;;2.52;;
71290;SDS011;59073;51.994;4.448;2022-08-07T06:16:30;2.63;;;2.63;;
71290;SDS011;59073;51.994;4.448;2022-08-07T06:18:59;2.34;;;2.34;;
71290;SDS011;59073;51.994;4.448;2022-08-07T06:21:26;2.37;;;2.37;;
71290;SDS011;59073;51.994;4.448;2022-08-07T06:23:51;2.33;;;2.33;;
71290;SDS011;59073;51.994;4.448;2022-08-07T06:26:18;2.17;;;2.17;;
71290;SDS011;59073;51.994;4.448;2022-08-07T06:31:20;2.64;;;2.64;;
71290;SDS011;59073;51.994;4.448;2022-08-07T06:33:46;2.96;;;2.96;;
71290;SDS011;59073;51.994;4.448;2022-08-07T06:36:12;3.00;;;3.00;;
71290;SDS011;59073;51.994;4.448;2022-08-07T06:38:38;2.67;;;2.67;;
71290;SDS011;59073;51.994;4.448;2022-08-07T06:41:05;2.66;;;2.66;;
71290;SDS011;59073;51.994;4.448;2022-08-07T06:43:36;2.66;;;2.66;;
71290;SDS011;59073;51.994;4.448;2022-08-07T06:46:04;2.71;;;2.71;;
71290;SDS011;59073;51.994;4.448;2022-08-07T06:48:30;3.02;;;3.02;;
71290;SDS011;59073;51.994;4.448;2022-08-07T06:50:57;2.97;;;2.97;;
71290;SDS011;59073;51.994;4.448;2022-08-07T06:53:26;2.78;;;2.78;;
71290;SDS011;59073;51.994;4.448;2022-08-07T06:55:54;2.48;;;2.48;;
71290;SDS011;59073;51.994;4.448;2022-08-07T06:58:21;2.66;;;2.66;;
71290;SDS011;59073;51.994;4.448;2022-08-07T07:00:48;2.99;;;2.99;;
71290;SDS011;59073;51.994;4.448;2022-08-07T07:03:15;3.03;;;3.03;;
71290;SDS011;59073;51.994;4.448;2022-08-07T07:05:41;3.05;;;3.05;;
71290;SDS011;59073;51.994;4.448;2022-08-07T07:08:08;3.45;;;3.45;;
71290;SDS011;59073;51.994;4.448;2022-08-07T07:10:36;2.93;;;2.93;;
71290;SDS011;59073;51.994;4.448;2022-08-07T07:13:18;3.18;;;3.18;;
71290;SDS011;59073;51.994;4.448;2022-08-07T07:15:54;3.61;;;3.61;;
71290;SDS011;59073;51.994;4.448;2022-08-07T07:21:11;2.82;;;2.82;;
71290;SDS011;59073;51.994;4.448;2022-08-07T07:23:42;2.81;;;2.81;;
71290;SDS011;59073;51.994;4.448;2022-08-07T07:26:10;2.91;;;2.91;;
71290;SDS011;59073;51.994;4.448;2022-08-07T07:28:44;3.06;;;3.06;;
71290;SDS011;59073;51.994;4.448;2022-08-07T07:31:18;2.54;;;2.54;;
71290;SDS011;59073;51.994;4.448;2022-08-07T07:33:51;1.80;;;1.80;;
71290;SDS011;59073;51.994;4.448;2022-08-07T07:36:21;3.07;;;3.07;;
71290;SDS011;59073;51.994;4.448;2022-08-07T07:38:49;2.99;;;2.99;;
71290;SDS011;59073;51.994;4.448;2022-08-07T07:41:15;2.12;;;2.12;;
71290;SDS011;59073;51.994;4.448;2022-08-07T07:43:46;2.18;;;2.18;;
71290;SDS011;59073;51.994;4.448;2022-08-07T07:46:18;2.02;;;2.02;;
71290;SDS011;59073;51.994;4.448;2022-08-07T07:48:47;1.80;;;1.80;;
71290;SDS011;59073;51.994;4.448;2022-08-07T07:51:17;1.45;;;1.45;;
71290;SDS011;59073;51.994;4.448;2022-08-07T07:53:45;1.39;;;1.39;;
71290;SDS011;59073;51.994;4.448;2022-08-07T07:56:12;1.44;;;1.44;;
71290;SDS011;59073;51.994;4.448;2022-08-07T07:58:48;0.90;;;0.90;;
71290;SDS011;59073;51.994;4.448;2022-08-07T08:01:15;1.25;;;1.25;;
71290;SDS011;59073;51.994;4.448;2022-08-07T08:03:44;1.43;;;1.43;;
71290;SDS011;59073;51.994;4.448;2022-08-07T08:06:13;1.55;;;1.55;;
71290;SDS011;59073;51.994;4.448;2022-08-07T08:08:39;1.60;;;1.60;;
71290;SDS011;59073;51.994;4.448;2022-08-07T08:11:08;1.72;;;1.72;;
71290;SDS011;59073;51.994;4.448;2022-08-07T08:13:43;1.56;;;1.56;;
71290;SDS011;59073;51.994;4.448;2022-08-07T08:16:11;1.55;;;1.55;;
71290;SDS011;59073;51.994;4.448;2022-08-07T08:18:41;1.43;;;1.43;;
71290;SDS011;59073;51.994;4.448;2022-08-07T08:21:08;1.55;;;1.55;;
71290;SDS011;59073;51.994;4.448;2022-08-07T08:23:55;1.63;;;1.63;;
71290;SDS011;59073;51.994;4.448;2022-08-07T08:26:40;1.54;;;1.54;;
71290;SDS011;59073;51.994;4.448;2022-08-07T08:29:27;1.52;;;1.52;;
71290;SDS011;59073;51.994;4.448;2022-08-07T08:31:58;1.57;;;1.57;;
71290;SDS011;59073;51.994;4.448;2022-08-07T08:34:27;1.44;;;1.44;;
71290;SDS011;59073;51.994;4.448;2022-08-07T08:36:56;1.35;;;1.35;;
71290;SDS011;59073;51.994;4.448;2022-08-07T08:39:24;1.60;;;1.60;;
71290;SDS011;59073;51.994;4.448;2022-08-07T08:41:54;1.63;;;1.63;;
71290;SDS011;59073;51.994;4.448;2022-08-07T08:49:57;1.71;;;1.71;;
71290;SDS011;59073;51.994;4.448;2022-08-07T08:55:15;1.54;;;1.54;;
71290;SDS011;59073;51.994;4.448;2022-08-07T08:57:57;1.54;;;1.54;;
71290;SDS011;59073;51.994;4.448;2022-08-07T09:00:27;1.54;;;1.54;;
71290;SDS011;59073;51.994;4.448;2022-08-07T09:03:00;1.27;;;1.27;;
71290;SDS011;59073;51.994;4.448;2022-08-07T09:05:46;1.48;;;1.48;;
71290;SDS011;59073;51.994;4.448;2022-08-07T09:08:22;1.38;;;1.38;;
71290;SDS011;59073;51.994;4.448;2022-08-07T09:11:04;1.34;;;1.34;;
71290;SDS011;59073;51.994;4.448;2022-08-07T09:14:00;1.25;;;1.25;;
71290;SDS011;59073;51.994;4.448;2022-08-07T09:16:43;1.04;;;1.04;;
71290;SDS011;59073;51.994;4.448;2022-08-07T09:27:35;1.09;;;1.09;;
71290;SDS011;59073;51.994;4.448;2022-08-07T09:30:16;1.20;;;1.20;;
71290;SDS011;59073;51.994;4.448;2022-08-07T09:32:59;1.05;;;1.05;;
71290;SDS011;59073;51.994;4.448;2022-08-07T09:35:34;1.03;;;1.03;;
71290;SDS011;59073;51.994;4.448;2022-08-07T09:40:59;0.90;;;0.90;;
71290;SDS011;59073;51.994;4.448;2022-08-07T09:49:47;1.01;;;1.01;;
71290;SDS011;59073;51.994;4.448;2022-08-07T09:52:20;1.15;;;1.15;;
71290;SDS011;59073;51.994;4.448;2022-08-07T09:54:54;1.09;;;1.09;;
71290;SDS011;59073;51.994;4.448;2022-08-07T10:00:17;1.14;;;1.14;;
71290;SDS011;59073;51.994;4.448;2022-08-07T10:14:03;1.12;;;1.12;;
71290;SDS011;59073;51.994;4.448;2022-08-07T10:17:02;1.23;;;1.23;;
71290;SDS011;59073;51.994;4.448;2022-08-07T10:22:47;1.11;;;1.11;;
71290;SDS011;59073;51.994;4.448;2022-08-07T10:25:29;1.10;;;1.10;;
71290;SDS011;59073;51.994;4.448;2022-08-07T10:28:24;1.07;;;1.07;;
71290;SDS011;59073;51.994;4.448;2022-08-07T10:31:06;1.43;;;1.43;;
71290;SDS011;59073;51.994;4.448;2022-08-07T10:39:23;1.28;;;1.28;;
71290;SDS011;59073;51.994;4.448;2022-08-07T10:42:18;1.38;;;1.38;;
71290;SDS011;59073;51.994;4.448;2022-08-07T10:44:56;1.01;;;1.01;;
71290;SDS011;59073;51.994;4.448;2022-08-07T10:47:40;1.28;;;1.28;;
71290;SDS011;59073;51.994;4.448;2022-08-07T10:50:15;1.28;;;1.28;;
71290;SDS011;59073;51.994;4.448;2022-08-07T10:55:35;1.33;;;1.33;;
71290;SDS011;59073;51.994;4.448;2022-08-07T10:58:11;1.17;;;1.17;;
71290;SDS011;59073;51.994;4.448;2022-08-07T11:00:46;1.22;;;1.22;;
71290;SDS011;59073;51.994;4.448;2022-08-07T11:09:10;1.24;;;1.24;;
71290;SDS011;59073;51.994;4.448;2022-08-07T11:11:52;1.22;;;1.22;;
71290;SDS011;59073;51.994;4.448;2022-08-07T11:14:27;1.07;;;1.07;;
71290;SDS011;59073;51.994;4.448;2022-08-07T11:17:05;1.26;;;1.26;;
71290;SDS011;59073;51.994;4.448;2022-08-07T11:22:21;1.03;;;1.03;;
71290;SDS011;59073;51.994;4.448;2022-08-07T11:30:23;1.09;;;1.09;;
71290;SDS011;59073;51.994;4.448;2022-08-07T11:33:00;1.02;;;1.02;;
71290;SDS011;59073;51.994;4.448;2022-08-07T11:35:37;0.93;;;0.93;;
71290;SDS011;59073;51.994;4.448;2022-08-07T11:38:39;0.97;;;0.97;;
71290;SDS011;59073;51.994;4.448;2022-08-07T11:41:32;0.82;;;0.82;;
71290;SDS011;59073;51.994;4.448;2022-08-07T11:44:21;0.83;;;0.83;;
71290;SDS011;59073;51.994;4.448;2022-08-07T11:47:08;0.69;;;0.69;;
71290;SDS011;59073;51.994;4.448;2022-08-07T11:49:46;0.81;;;0.81;;
71290;SDS011;59073;51.994;4.448;2022-08-07T11:52:34;0.78;;;0.78;;
71290;SDS011;59073;51.994;4.448;2022-08-07T11:57:41;0.83;;;0.83;;
71290;SDS011;59073;51.994;4.448;2022-08-07T12:00:15;0.88;;;0.88;;
71290;SDS011;59073;51.994;4.448;2022-08-07T12:08:49;1.11;;;1.11;;
71290;SDS011;59073;51.994;4.448;2022-08-07T12:11:25;1.25;;;1.25;;
71290;SDS011;59073;51.994;4.448;2022-08-07T12:14:18;1.36;;;1.36;;
71290;SDS011;59073;51.994;4.448;2022-08-07T12:16:55;1.43;;;1.43;;
71290;SDS011;59073;51.994;4.448;2022-08-07T12:25:21;1.13;;;1.13;;
71290;SDS011;59073;51.994;4.448;2022-08-07T12:31:40;0.93;;;0.93;;
71290;SDS011;59073;51.994;4.448;2022-08-07T12:34:14;1.20;;;1.20;;
71290;SDS011;59073;51.994;4.448;2022-08-07T12:36:41;1.24;;;1.24;;
71290;SDS011;59073;51.994;4.448;2022-08-07T12:39:09;1.24;;;1.24;;
71290;SDS011;59073;51.994;4.448;2022-08-07T12:41:35;1.50;;;1.50;;
71290;SDS011;59073;51.994;4.448;2022-08-07T12:44:04;1.17;;;1.17;;
71290;SDS011;59073;51.994;4.448;2022-08-07T12:51:40;1.11;;;1.11;;
71290;SDS011;59073;51.994;4.448;2022-08-07T12:54:24;1.13;;;1.13;;
71290;SDS011;59073;51.994;4.448;2022-08-07T12:57:03;1.25;;;1.25;;
71290;SDS011;59073;51.994;4.448;2022-08-07T12:59:32;1.52;;;1.52;;
71290;SDS011;59073;51.994;4.448;2022-08-07T13:05:05;1.20;;;1.20;;
71290;SDS011;59073;51.994;4.448;2022-08-07T13:07:54;1.28;;;1.28;;
71290;SDS011;59073;51.994;4.448;2022-08-07T13:13:08;1.36;;;1.36;;
71290;SDS011;59073;51.994;4.448;2022-08-07T13:18:52;1.08;;;1.08;;
71290;SDS011;59073;51.994;4.448;2022-08-07T13:21:39;1.41;;;1.41;;
71290;SDS011;59073;51.994;4.448;2022-08-07T13:29:55;1.33;;;1.33;;
71290;SDS011;59073;51.994;4.448;2022-08-07T13:32:37;1.50;;;1.50;;
71290;SDS011;59073;51.994;4.448;2022-08-07T13:35:30;1.51;;;1.51;;
71290;SDS011;59073;51.994;4.448;2022-08-07T13:41:05;1.28;;;1.28;;
71290;SDS011;59073;51.994;4.448;2022-08-07T13:43:49;1.32;;;1.32;;
71290;SDS011;59073;51.994;4.448;2022-08-07T13:46:18;1.43;;;1.43;;
71290;SDS011;59073;51.994;4.448;2022-08-07T13:48:52;1.47;;;1.47;;
71290;SDS011;59073;51.994;4.448;2022-08-07T13:51:22;1.33;;;1.33;;
71290;SDS011;59073;51.994;4.448;2022-08-07T13:53:55;1.42;;;1.42;;
71290;SDS011;59073;51.994;4.448;2022-08-07T13:56:24;1.47;;;1.47;;
71290;SDS011;59073;51.994;4.448;2022-08-07T13:58:52;1.32;;;1.32;;
71290;SDS011;59073;51.994;4.448;2022-08-07T14:01:27;1.21;;;1.21;;
71290;SDS011;59073;51.994;4.448;2022-08-07T14:04:06;1.18;;;1.18;;
71290;SDS011;59073;51.994;4.448;2022-08-07T14:06:35;1.17;;;1.17;;
71290;SDS011;59073;51.994;4.448;2022-08-07T14:09:04;1.34;;;1.34;;
71290;SDS011;59073;51.994;4.448;2022-08-07T14:11:35;1.29;;;1.29;;
71290;SDS011;59073;51.994;4.448;2022-08-07T14:14:11;1.18;;;1.18;;
71290;SDS011;59073;51.994;4.448;2022-08-07T14:16:40;1.05;;;1.05;;
71290;SDS011;59073;51.994;4.448;2022-08-07T14:19:14;1.37;;;1.37;;
71290;SDS011;59073;51.994;4.448;2022-08-07T14:21:46;1.31;;;1.31;;
71290;SDS011;59073;51.994;4.448;2022-08-07T14:26:57;1.18;;;1.18;;
71290;SDS011;59073;51.994;4.448;2022-08-07T14:29:28;1.35;;;1.35;;
71290;SDS011;59073;51.994;4.448;2022-08-07T14:32:00;1.34;;;1.34;;
71290;SDS011;59073;51.994;4.448;2022-08-07T14:34:29;1.19;;;1.19;;
71290;SDS011;59073;51.994;4.448;2022-08-07T14:36:58;1.16;;;1.16;;
71290;SDS011;59073;51.994;4.448;2022-08-07T14:39:28;1.26;;;1.26;;
71290;SDS011;59073;51.994;4.448;2022-08-07T14:41:56;1.24;;;1.24;;
71290;SDS011;59073;51.994;4.448;2022-08-07T14:44:25;1.35;;;1.35;;
71290;SDS011;59073;51.994;4.448;2022-08-07T14:46:54;1.31;;;1.31;;
71290;SDS011;59073;51.994;4.448;2022-08-07T14:49:23;1.33;;;1.33;;
71290;SDS011;59073;51.994;4.448;2022-08-07T14:51:58;1.16;;;1.16;;
71290;SDS011;59073;51.994;4.448;2022-08-07T14:54:28;1.36;;;1.36;;
71290;SDS011;59073;51.994;4.448;2022-08-07T14:57:00;1.39;;;1.39;;
71290;SDS011;59073;51.994;4.448;2022-08-07T14:59:28;1.34;;;1.34;;
71290;SDS011;59073;51.994;4.448;2022-08-07T15:02:11;1.32;;;1.32;;
71290;SDS011;59073;51.994;4.448;2022-08-07T15:04:42;1.36;;;1.36;;
71290;SDS011;59073;51.994;4.448;2022-08-07T15:07:11;1.60;;;1.60;;
71290;SDS011;59073;51.994;4.448;2022-08-07T15:09:44;1.25;;;1.25;;
71290;SDS011;59073;51.994;4.448;2022-08-07T15:12:18;1.70;;;1.70;;
71290;SDS011;59073;51.994;4.448;2022-08-07T15:14:49;1.64;;;1.64;;
71290;SDS011;59073;51.994;4.448;2022-08-07T15:17:24;1.46;;;1.46;;
71290;SDS011;59073;51.994;4.448;2022-08-07T15:19:57;1.43;;;1.43;;
71290;SDS011;59073;51.994;4.448;2022-08-07T15:22:29;1.34;;;1.34;;
71290;SDS011;59073;51.994;4.448;2022-08-07T15:24:58;1.35;;;1.35;;
71290;SDS011;59073;51.994;4.448;2022-08-07T15:27:26;1.25;;;1.25;;
71290;SDS011;59073;51.994;4.448;2022-08-07T15:30:06;1.47;;;1.47;;
71290;SDS011;59073;51.994;4.448;2022-08-07T15:32:39;1.29;;;1.29;;
71290;SDS011;59073;51.994;4.448;2022-08-07T15:35:11;1.19;;;1.19;;
71290;SDS011;59073;51.994;4.448;2022-08-07T15:37:50;1.33;;;1.33;;
71290;SDS011;59073;51.994;4.448;2022-08-07T15:40:22;1.51;;;1.51;;
71290;SDS011;59073;51.994;4.448;2022-08-07T15:47:56;1.49;;;1.49;;
71290;SDS011;59073;51.994;4.448;2022-08-07T15:50:31;1.47;;;1.47;;
71290;SDS011;59073;51.994;4.448;2022-08-07T15:53:03;1.64;;;1.64;;
71290;SDS011;59073;51.994;4.448;2022-08-07T15:55:46;1.91;;;1.91;;
71290;SDS011;59073;51.994;4.448;2022-08-07T15:58:20;1.87;;;1.87;;
71290;SDS011;59073;51.994;4.448;2022-08-07T16:00:53;1.68;;;1.68;;
71290;SDS011;59073;51.994;4.448;2022-08-07T16:03:23;1.77;;;1.77;;
71290;SDS011;59073;51.994;4.448;2022-08-07T16:05:51;1.81;;;1.81;;
71290;SDS011;59073;51.994;4.448;2022-08-07T16:08:23;1.86;;;1.86;;
71290;SDS011;59073;51.994;4.448;2022-08-07T16:11:02;1.82;;;1.82;;
71290;SDS011;59073;51.994;4.448;2022-08-07T16:26:43;2.24;;;2.24;;
71290;SDS011;59073;51.994;4.448;2022-08-07T17:45:53;1.80;;;1.80;;
71290;SDS011;59073;51.994;4.448;2022-08-07T18:17:04;1.61;;;1.61;;
71290;SDS011;59073;51.994;4.448;2022-08-07T18:19:53;1.70;;;1.70;;
71290;SDS011;59073;51.994;4.448;2022-08-07T18:22:29;1.75;;;1.75;;
71290;SDS011;59073;51.994;4.448;2022-08-07T18:25:04;1.66;;;1.66;;
71290;SDS011;59073;51.994;4.448;2022-08-07T18:30:38;1.50;;;1.50;;
71290;SDS011;59073;51.994;4.448;2022-08-07T18:36:21;1.81;;;1.81;;
71290;SDS011;59073;51.994;4.448;2022-08-07T18:44:48;1.51;;;1.51;;
71290;SDS011;59073;51.994;4.448;2022-08-07T18:58:44;1.39;;;1.39;;
71290;SDS011;59073;51.994;4.448;2022-08-07T19:06:46;1.41;;;1.41;;
71290;SDS011;59073;51.994;4.448;2022-08-07T19:09:24;1.59;;;1.59;;
71290;SDS011;59073;51.994;4.448;2022-08-07T19:12:22;1.49;;;1.49;;
71290;SDS011;59073;51.994;4.448;2022-08-07T19:15:19;1.60;;;1.60;;
71290;SDS011;59073;51.994;4.448;2022-08-07T19:17:53;1.87;;;1.87;;
71290;SDS011;59073;51.994;4.448;2022-08-07T19:20:30;1.76;;;1.76;;
71290;SDS011;59073;51.994;4.448;2022-08-07T19:23:16;1.80;;;1.80;;
71290;SDS011;59073;51.994;4.448;2022-08-07T19:25:54;1.80;;;1.80;;
71290;SDS011;59073;51.994;4.448;2022-08-07T19:28:27;1.88;;;1.88;;
71290;SDS011;59073;51.994;4.448;2022-08-07T19:33:47;2.19;;;2.19;;
71290;SDS011;59073;51.994;4.448;2022-08-07T19:36:18;2.11;;;2.11;;
71290;SDS011;59073;51.994;4.448;2022-08-07T19:38:49;2.19;;;2.19;;
71290;SDS011;59073;51.994;4.448;2022-08-07T19:41:22;2.16;;;2.16;;
71290;SDS011;59073;51.994;4.448;2022-08-07T19:43:50;2.44;;;2.44;;
71290;SDS011;59073;51.994;4.448;2022-08-07T19:46:23;2.23;;;2.23;;
71290;SDS011;59073;51.994;4.448;2022-08-07T19:49:02;2.54;;;2.54;;
71290;SDS011;59073;51.994;4.448;2022-08-07T19:51:32;2.15;;;2.15;;
71290;SDS011;59073;51.994;4.448;2022-08-07T19:54:02;2.49;;;2.49;;
71290;SDS011;59073;51.994;4.448;2022-08-07T19:56:38;2.31;;;2.31;;
71290;SDS011;59073;51.994;4.448;2022-08-07T19:59:20;2.56;;;2.56;;
71290;SDS011;59073;51.994;4.448;2022-08-07T20:02:01;2.41;;;2.41;;
71290;SDS011;59073;51.994;4.448;2022-08-07T20:04:36;2.57;;;2.57;;
71290;SDS011;59073;51.994;4.448;2022-08-07T20:07:07;2.43;;;2.43;;
71290;SDS011;59073;51.994;4.448;2022-08-07T20:09:42;2.03;;;2.03;;
71290;SDS011;59073;51.994;4.448;2022-08-07T20:12:18;2.32;;;2.32;;
71290;SDS011;59073;51.994;4.448;2022-08-07T20:14:52;2.43;;;2.43;;
71290;SDS011;59073;51.994;4.448;2022-08-07T20:17:28;2.44;;;2.44;;
71290;SDS011;59073;51.994;4.448;2022-08-07T20:20:35;2.19;;;2.19;;
71290;SDS011;59073;51.994;4.448;2022-08-07T20:23:10;2.35;;;2.35;;
71290;SDS011;59073;51.994;4.448;2022-08-07T20:25:41;2.11;;;2.11;;
71290;SDS011;59073;51.994;4.448;2022-08-07T20:28:09;2.34;;;2.34;;
71290;SDS011;59073;51.994;4.448;2022-08-07T20:30:42;2.04;;;2.04;;
71290;SDS011;59073;51.994;4.448;2022-08-07T20:33:11;2.33;;;2.33;;
71290;SDS011;59073;51.994;4.448;2022-08-07T20:35:41;2.23;;;2.23;;
71290;SDS011;59073;51.994;4.448;2022-08-07T20:38:10;2.16;;;2.16;;
71290;SDS011;59073;51.994;4.448;2022-08-07T20:40:44;2.54;;;2.54;;
71290;SDS011;59073;51.994;4.448;2022-08-07T20:43:25;2.35;;;2.35;;
71290;SDS011;59073;51.994;4.448;2022-08-07T20:45:57;2.52;;;2.52;;
71290;SDS011;59073;51.994;4.448;2022-08-07T20:48:35;2.57;;;2.57;;
71290;SDS011;59073;51.994;4.448;2022-08-07T20:51:06;3.01;;;3.01;;
71290;SDS011;59073;51.994;4.448;2022-08-07T20:53:59;2.49;;;2.49;;
71290;SDS011;59073;51.994;4.448;2022-08-07T20:56:29;2.63;;;2.63;;
71290;SDS011;59073;51.994;4.448;2022-08-07T20:59:07;2.51;;;2.51;;
71290;SDS011;59073;51.994;4.448;2022-08-07T21:01:58;2.35;;;2.35;;
71290;SDS011;59073;51.994;4.448;2022-08-07T21:04:42;2.34;;;2.34;;
71290;SDS011;59073;51.994;4.448;2022-08-07T21:07:28;2.69;;;2.69;;
71290;SDS011;59073;51.994;4.448;2022-08-07T21:10:00;2.68;;;2.68;;
71290;SDS011;59073;51.994;4.448;2022-08-07T21:12:41;2.75;;;2.75;;
71290;SDS011;59073;51.994;4.448;2022-08-07T21:15:10;2.45;;;2.45;;
71290;SDS011;59073;51.994;4.448;2022-08-07T21:17:41;2.43;;;2.43;;
71290;SDS011;59073;51.994;4.448;2022-08-07T21:20:24;2.39;;;2.39;;
71290;SDS011;59073;51.994;4.448;2022-08-07T21:22:52;2.21;;;2.21;;
71290;SDS011;59073;51.994;4.448;2022-08-07T21:28:06;2.56;;;2.56;;
71290;SDS011;59073;51.994;4.448;2022-08-07T21:31:02;2.68;;;2.68;;
71290;SDS011;59073;51.994;4.448;2022-08-07T21:33:47;2.78;;;2.78;;
71290;SDS011;59073;51.994;4.448;2022-08-07T21:39:34;3.05;;;3.05;;
71290;SDS011;59073;51.994;4.448;2022-08-07T21:45:21;3.18;;;3.18;;
71290;SDS011;59073;51.994;4.448;2022-08-07T21:48:57;2.85;;;2.85;;
71290;SDS011;59073;51.994;4.448;2022-08-07T21:54:07;3.32;;;3.32;;
71290;SDS011;59073;51.994;4.448;2022-08-07T21:59:59;3.22;;;3.22;;
71290;SDS011;59073;51.994;4.448;2022-08-07T22:02:39;3.26;;;3.26;;
71290;SDS011;59073;51.994;4.448;2022-08-07T22:05:34;3.18;;;3.18;;
71290;SDS011;59073;51.994;4.448;2022-08-07T22:08:07;2.95;;;2.95;;
71290;SDS011;59073;51.994;4.448;2022-08-07T22:16:55;3.09;;;3.09;;
71290;SDS011;59073;51.994;4.448;2022-08-07T22:22:51;2.97;;;2.97;;
71290;SDS011;59073;51.994;4.448;2022-08-07T22:25:44;3.05;;;3.05;;
71290;SDS011;59073;51.994;4.448;2022-08-07T22:34:41;2.76;;;2.76;;